Time;durP1;ratioP1;P1;durP2;ratioP2;P2;SDS_P1;SDS_P2;PMS_P1;PMS_P2;Temp;Humidity;BMP_temperature;BMP_pressure;BME280_temperature;BME280_humidity;BME280_pressure;Samples;Min_cycle;Max_cycle;Signal;HPM_P1;HPM_P2
2021/09/30 00:00:28;;;;;;;3.95;1.58;;;;;;;12.42;68.45;102426.81;5102666;28;20047;-56
2021/09/30 00:02:53;;;;;;;6.10;1.27;;;;;;;12.52;66.67;102438.41;5100164;28;20503;-56
2021/09/30 00:05:19;;;;;;;3.63;1.20;;;;;;;12.55;64.79;102434.06;5105299;28;20076;-58
2021/09/30 00:07:45;;;;;;;6.32;1.20;;;;;;;12.53;65.52;102437.53;5109783;28;20016;-59
2021/09/30 00:10:17;;;;;;;7.18;1.38;;;;;;;12.54;65.49;102447.22;5113064;28;20064;-59
2021/09/30 00:12:45;;;;;;;6.13;1.20;;;;;;;12.57;65.72;102434.06;5075667;28;20047;-59
2021/09/30 00:15:14;;;;;;;9.73;1.10;;;;;;;12.53;65.64;102445.44;5098493;28;20119;-57
2021/09/30 00:34:43;;;;;;;3.45;0.90;;;;;;;12.48;64.35;102454.16;5101654;28;20078;-58
2021/09/30 00:50:39;;;;;;;8.68;1.52;;;;;;;12.61;64.32;102460.53;5052326;28;20073;-58
2021/09/30 00:53:30;;;;;;;7.35;1.00;;;;;;;12.59;64.59;102469.25;5046565;28;20187;-57
2021/09/30 01:25:53;;;;;;;5.10;1.40;;;;;;;12.58;63.10;102462.22;4971394;28;20098;-56
2021/09/30 02:20:41;;;;;;;7.13;1.20;;;;;;;12.45;62.93;102469.91;4962097;28;20118;-57
2021/09/30 02:29:15;;;;;;;5.90;1.17;;;;;;;12.43;66.20;102478.69;4997831;28;20041;-56
2021/09/30 02:59:05;;;;;;;7.32;1.67;;;;;;;12.32;63.74;102480.25;5095012;28;20041;-56
2021/09/30 03:01:33;;;;;;;12.43;1.90;;;;;;;12.29;64.11;102478.44;5083250;28;20037;-55
2021/09/30 03:03:59;;;;;;;9.15;1.42;;;;;;;12.29;63.35;102475.81;5083644;28;20024;-55
2021/09/30 03:06:26;;;;;;;10.10;1.60;;;;;;;12.27;63.72;102477.53;5097740;28;20039;-56
2021/09/30 03:08:54;;;;;;;13.25;1.73;;;;;;;12.27;64.16;102477.53;5087079;28;20053;-56
2021/09/30 03:11:22;;;;;;;11.55;1.45;;;;;;;12.36;63.06;102476.78;5086237;28;20028;-56
2021/09/30 03:13:50;;;;;;;10.85;1.52;;;;;;;12.36;64.17;102475.06;5098195;28;20039;-55
2021/09/30 03:16:35;;;;;;;6.22;1.30;;;;;;;12.33;62.46;102480.28;5111286;28;20117;-54
2021/09/30 03:19:16;;;;;;;7.00;1.30;;;;;;;12.26;63.72;102483.66;5105090;28;20112;-55
2021/09/30 03:24:27;;;;;;;8.40;1.20;;;;;;;12.27;62.00;102482.81;5093690;28;20628;-57
2021/09/30 03:26:53;;;;;;;9.18;1.60;;;;;;;12.33;62.16;102492.56;5088375;28;20028;-56
2021/09/30 03:29:19;;;;;;;10.00;1.63;;;;;;;12.39;63.03;102487.41;5108515;28;20040;-56
2021/09/30 03:31:47;;;;;;;6.30;1.45;;;;;;;12.49;62.52;102489.31;5108010;28;20039;-60
2021/09/30 03:34:14;;;;;;;3.70;1.00;;;;;;;12.55;60.03;102500.00;5088953;28;20032;-57
2021/09/30 03:36:39;;;;;;;13.50;1.63;;;;;;;12.47;59.64;102491.03;5106937;28;20039;-54
2021/09/30 03:39:08;;;;;;;6.00;1.15;;;;;;;12.47;59.72;102498.94;5095452;28;20032;-55
2021/09/30 03:41:33;;;;;;;4.35;0.98;;;;;;;12.44;60.24;102499.81;5093231;28;20046;-57
2021/09/30 03:43:58;;;;;;;9.00;1.27;;;;;;;12.50;59.79;102500.78;5090160;28;20048;-56
2021/09/30 03:46:24;;;;;;;5.90;1.23;;;;;;;12.44;60.26;102502.44;5093973;28;20036;-56
2021/09/30 03:48:55;;;;;;;6.43;1.15;;;;;;;12.46;59.65;102507.75;5093215;28;20436;-59
2021/09/30 03:59:28;;;;;;;8.43;1.50;;;;;;;12.13;62.75;102503.63;5119078;28;20058;-56
2021/09/30 04:02:03;;;;;;;8.85;1.65;;;;;;;12.23;63.87;102513.50;5102957;28;20032;-55
2021/09/30 04:04:33;;;;;;;8.73;1.67;;;;;;;12.33;61.09;102513.66;5101291;28;20055;-58
2021/09/30 04:07:02;;;;;;;4.70;1.23;;;;;;;12.41;61.64;102517.31;5107240;28;20020;-56
2021/09/30 04:09:28;;;;;;;7.68;1.30;;;;;;;12.42;61.39;102513.78;5105685;28;20086;-59
2021/09/30 04:11:55;;;;;;;7.50;1.45;;;;;;;12.45;61.30;102521.78;5102947;28;20029;-56
2021/09/30 04:14:21;;;;;;;8.25;1.50;;;;;;;12.44;61.62;102523.53;5095592;28;20110;-56
2021/09/30 04:16:47;;;;;;;11.40;1.98;;;;;;;12.39;61.11;102519.91;5099517;28;20032;-56
2021/09/30 04:19:18;;;;;;;4.70;1.20;;;;;;;12.32;61.99;102522.41;5102557;28;20063;-56
2021/09/30 04:21:45;;;;;;;6.25;1.20;;;;;;;12.35;63.18;102525.13;5099103;28;20036;-56
2021/09/30 04:24:11;;;;;;;7.38;1.50;;;;;;;12.35;62.52;102531.28;5098532;28;20028;-53
2021/09/30 04:26:36;;;;;;;7.93;1.50;;;;;;;12.29;62.63;102534.69;5112776;28;20032;-57
2021/09/30 04:29:02;;;;;;;11.75;1.67;;;;;;;12.37;60.83;102524.28;5100729;28;20036;-57
2021/09/30 04:31:28;;;;;;;7.72;1.30;;;;;;;12.44;60.10;102533.19;5097202;28;20047;-58
2021/09/30 04:33:54;;;;;;;7.90;1.40;;;;;;;12.51;59.12;102532.41;5077285;28;20024;-54
2021/09/30 04:36:21;;;;;;;7.68;1.40;;;;;;;12.52;59.09;102534.19;5105262;28;20035;-54
2021/09/30 04:38:47;;;;;;;8.95;1.38;;;;;;;12.53;58.73;102532.44;5109725;28;20077;-55
2021/09/30 04:41:13;;;;;;;9.20;1.38;;;;;;;12.53;59.45;102535.97;5090823;28;20345;-54
2021/09/30 04:43:39;;;;;;;7.25;1.15;;;;;;;12.55;60.71;102536.00;5088320;28;20029;-55
2021/09/30 04:46:05;;;;;;;5.22;1.55;;;;;;;12.58;59.18;102538.69;5102577;28;20032;-56
2021/09/30 04:48:30;;;;;;;7.28;1.35;;;;;;;12.61;59.95;102547.56;5111420;28;20027;-57
2021/09/30 04:50:56;;;;;;;8.65;1.42;;;;;;;12.61;60.04;102544.03;5100679;28;20071;-57
2021/09/30 04:53:21;;;;;;;7.10;1.15;;;;;;;12.55;59.59;102543.91;5104544;28;20043;-54
2021/09/30 04:55:46;;;;;;;7.80;1.33;;;;;;;12.45;60.43;102534.94;5098526;28;20107;-55
2021/09/30 04:58:12;;;;;;;5.03;1.33;;;;;;;12.43;61.07;102528.78;5107709;28;20087;-58
2021/09/30 05:00:37;;;;;;;8.43;1.30;;;;;;;12.38;60.49;102536.59;5102113;28;20051;-55
2021/09/30 05:03:03;;;;;;;5.38;1.10;;;;;;;12.35;60.58;102539.19;5097138;28;20028;-55
2021/09/30 05:05:28;;;;;;;6.50;1.27;;;;;;;12.31;60.98;102544.38;5094400;28;20020;-56
2021/09/30 05:07:53;;;;;;;9.75;1.45;;;;;;;12.34;59.38;102533.88;5099966;28;20043;-55
2021/09/30 05:10:21;;;;;;;6.18;1.35;;;;;;;12.27;61.20;102541.69;5082672;28;20028;-55
2021/09/30 05:12:48;;;;;;;13.95;2.03;;;;;;;12.16;60.05;102537.94;5089638;28;20047;-57
2021/09/30 05:15:14;;;;;;;4.43;1.30;;;;;;;12.13;60.91;102537.88;5103470;28;20506;-56
2021/09/30 05:17:40;;;;;;;7.15;1.20;;;;;;;12.04;61.33;102540.34;5088480;28;20021;-54
2021/09/30 05:20:05;;;;;;;6.07;1.48;;;;;;;11.97;61.28;102538.47;5116923;28;20086;-54
2021/09/30 05:22:31;;;;;;;10.15;1.50;;;;;;;11.88;61.06;102534.75;5096239;28;20031;-54
2021/09/30 05:24:56;;;;;;;5.45;1.13;;;;;;;11.85;61.51;102537.34;5098926;28;20028;-54
2021/09/30 05:27:21;;;;;;;8.15;1.30;;;;;;;11.77;61.02;102538.03;5100303;28;20032;-56
2021/09/30 05:29:47;;;;;;;9.27;1.38;;;;;;;11.78;61.48;102535.44;5093860;28;20028;-56
2021/09/30 05:32:12;;;;;;;13.27;1.13;;;;;;;11.76;61.08;102538.88;5091801;28;20039;-57
2021/09/30 05:34:38;;;;;;;10.40;1.25;;;;;;;11.76;60.89;102533.59;5099773;28;20462;-55
2021/09/30 05:37:03;;;;;;;5.60;1.10;;;;;;;11.74;62.91;102524.78;5097022;28;20058;-57
2021/09/30 05:39:28;;;;;;;7.65;1.35;;;;;;;11.80;60.23;102538.09;5096065;28;20059;-55
2021/09/30 05:41:56;;;;;;;8.20;1.17;;;;;;;11.86;58.20;102536.47;5094511;28;20059;-55
2021/09/30 05:44:24;;;;;;;9.00;1.20;;;;;;;11.84;58.40;102529.41;5109262;28;20098;-56
2021/09/30 05:46:56;;;;;;;5.03;1.08;;;;;;;11.79;59.60;102531.91;5099869;28;20028;-56
2021/09/30 05:49:23;;;;;;;5.25;1.30;;;;;;;11.67;60.98;102534.31;5092895;28;20057;-54
2021/09/30 05:51:48;;;;;;;6.10;0.85;;;;;;;11.57;60.62;102525.34;5100962;28;20024;-55
2021/09/30 05:54:14;;;;;;;7.22;1.00;;;;;;;11.56;59.55;102527.94;5093032;28;21416;-58
2021/09/30 05:56:40;;;;;;;7.72;1.30;;;;;;;11.63;58.70;102528.09;5095339;28;20074;-57
2021/09/30 05:59:05;;;;;;;10.68;1.30;;;;;;;11.66;60.64;102529.88;5108413;28;20464;-55
2021/09/30 06:12:35;;;;;;;6.00;1.13;;;;;;;11.75;61.11;102516.91;5098750;28;20055;-57
2021/09/30 06:15:02;;;;;;;4.57;1.10;;;;;;;11.77;60.54;102535.38;5093244;28;20170;-57
2021/09/30 06:17:28;;;;;;;4.10;1.02;;;;;;;11.80;59.84;102546.88;5095733;28;20141;-58
2021/09/30 06:19:54;;;;;;;5.70;1.95;;;;;;;11.82;59.83;102539.91;5099188;28;20031;-58
2021/09/30 06:22:19;;;;;;;8.82;1.25;;;;;;;11.83;59.41;102532.88;5097489;28;20032;-58
2021/09/30 06:24:45;;;;;;;5.47;1.40;;;;;;;11.86;61.81;102533.81;5098524;28;20061;-58
2021/09/30 06:27:10;;;;;;;8.98;1.17;;;;;;;11.86;59.52;102532.94;5096132;28;20107;-57
2021/09/30 06:29:35;;;;;;;6.55;1.40;;;;;;;11.95;59.59;102532.28;5092215;28;20031;-58
2021/09/30 06:32:01;;;;;;;7.43;1.67;;;;;;;12.03;59.94;102535.94;5100918;28;20031;-58
2021/09/30 06:34:27;;;;;;;4.75;1.27;;;;;;;12.12;60.77;102528.22;5100464;28;20024;-59
2021/09/30 06:36:52;;;;;;;8.43;1.30;;;;;;;12.19;61.13;102535.38;5097320;28;20022;-58
2021/09/30 06:39:17;;;;;;;3.88;1.33;;;;;;;12.25;61.00;102530.22;5097954;28;20023;-59
2021/09/30 06:41:43;;;;;;;6.30;1.20;;;;;;;12.32;59.93;102532.97;5092547;28;20345;-59
2021/09/30 06:44:08;;;;;;;6.55;1.27;;;;;;;12.37;59.30;102526.03;5096775;28;20020;-59
2021/09/30 06:46:34;;;;;;;5.82;1.10;;;;;;;12.41;60.99;102525.22;5091685;28;20043;-60
2021/09/30 06:48:59;;;;;;;3.17;1.00;;;;;;;12.45;59.45;102530.56;5091574;28;20078;-58
2021/09/30 06:51:24;;;;;;;6.70;1.20;;;;;;;12.45;60.82;102533.19;5094307;28;20044;-58
2021/09/30 06:53:50;;;;;;;4.10;1.10;;;;;;;12.40;59.62;102540.16;5082903;28;20039;-59
2021/09/30 06:56:18;;;;;;;11.07;1.67;;;;;;;12.44;61.31;102541.09;5097332;28;20070;-58
2021/09/30 06:58:45;;;;;;;8.52;1.20;;;;;;;12.47;61.06;102543.78;5094165;28;20032;-59
2021/09/30 07:01:17;;;;;;;9.02;1.40;;;;;;;12.51;61.52;102540.31;5099664;28;20820;-59
2021/09/30 07:03:45;;;;;;;6.70;1.10;;;;;;;12.58;60.95;102543.97;5094216;28;20046;-58
2021/09/30 07:06:11;;;;;;;10.23;1.98;;;;;;;12.62;60.62;102535.25;5096975;28;20106;-58
2021/09/30 07:08:37;;;;;;;7.07;1.30;;;;;;;12.68;59.94;102537.97;5097546;28;20144;-59
2021/09/30 07:11:02;;;;;;;5.75;1.77;;;;;;;12.82;60.22;102544.38;5096299;28;20099;-59
2021/09/30 07:13:27;;;;;;;7.10;1.10;;;;;;;13.03;59.42;102549.09;5095957;28;20047;-59
2021/09/30 07:15:54;;;;;;;2.80;1.20;;;;;;;13.14;59.66;102545.75;5093632;28;20452;-57
2021/09/30 07:18:20;;;;;;;7.53;1.48;;;;;;;13.22;58.75;102552.91;5071025;28;20036;-59
2021/09/30 07:20:53;;;;;;;10.57;1.40;;;;;;;13.24;58.98;102553.81;5085289;28;20048;-57
2021/09/30 07:23:22;;;;;;;8.85;1.65;;;;;;;13.32;58.60;102553.06;5087735;28;20036;-59
2021/09/30 07:25:47;;;;;;;4.00;1.00;;;;;;;13.37;57.38;102561.94;5091521;28;20096;-57
2021/09/30 07:28:13;;;;;;;5.63;1.10;;;;;;;13.33;57.10;102562.78;5092138;28;20100;-59
2021/09/30 07:30:38;;;;;;;5.68;1.08;;;;;;;13.33;57.50;102557.50;5116069;28;20035;-58
2021/09/30 07:33:05;;;;;;;4.85;1.08;;;;;;;13.35;57.63;102556.66;5124231;28;20043;-58
2021/09/30 07:35:31;;;;;;;5.65;0.90;;;;;;;13.43;57.38;102548.81;5083094;28;20053;-59
2021/09/30 07:37:57;;;;;;;6.22;1.20;;;;;;;13.60;58.03;102555.22;5092005;28;20115;-57
2021/09/30 07:40:23;;;;;;;6.82;1.30;;;;;;;13.73;57.33;102553.63;5097370;28;20024;-59
2021/09/30 07:42:50;;;;;;;4.40;1.00;;;;;;;13.84;57.64;102552.00;5090808;28;20050;-58
2021/09/30 07:45:15;;;;;;;7.63;1.08;;;;;;;13.85;56.39;102555.53;5088838;28;20037;-59
2021/09/30 07:47:41;;;;;;;6.53;1.10;;;;;;;13.93;55.91;102550.31;5094961;28;20031;-59
2021/09/30 07:50:08;;;;;;;5.25;1.02;;;;;;;13.90;56.35;102551.19;5096498;28;20048;-57
2021/09/30 07:52:33;;;;;;;7.53;1.10;;;;;;;13.89;56.13;102543.22;5086501;28;20380;-58
2021/09/30 07:55:02;;;;;;;4.13;1.20;;;;;;;13.88;56.92;102552.94;5091726;28;20024;-58
2021/09/30 07:57:28;;;;;;;7.57;1.10;;;;;;;13.86;57.68;102548.50;5095847;28;20048;-58
2021/09/30 07:59:54;;;;;;;5.43;1.15;;;;;;;13.90;57.47;102560.88;5090513;28;20657;-59
2021/09/30 08:02:19;;;;;;;9.32;1.17;;;;;;;13.85;57.41;102563.44;5098270;28;20024;-58
2021/09/30 08:04:45;;;;;;;4.63;1.30;;;;;;;13.79;57.67;102564.25;5101325;28;20035;-58
2021/09/30 08:07:10;;;;;;;5.78;1.08;;;;;;;13.74;58.23;102562.44;5103335;28;20036;-59
2021/09/30 08:09:36;;;;;;;8.57;1.60;;;;;;;13.73;58.93;102568.59;5108814;28;20047;-59
2021/09/30 08:12:02;;;;;;;10.75;1.80;;;;;;;13.61;60.69;102566.66;5116094;28;20432;-59
2021/09/30 08:14:28;;;;;;;8.15;1.70;;;;;;;13.58;61.37;102570.16;5096596;28;20040;-58
2021/09/30 08:16:53;;;;;;;3.80;1.30;;;;;;;13.61;62.37;102570.22;5097432;28;20066;-59
2021/09/30 08:19:19;;;;;;;7.05;1.55;;;;;;;13.72;62.26;102554.47;5111919;28;20039;-59
2021/09/30 08:21:44;;;;;;;5.45;1.60;;;;;;;13.90;62.41;102559.13;5106791;28;20036;-58
2021/09/30 08:24:14;;;;;;;10.50;1.90;;;;;;;14.07;61.39;102561.06;5103281;28;20032;-58
2021/09/30 08:26:40;;;;;;;3.53;1.23;;;;;;;14.18;61.43;102556.78;5093355;28;20036;-58
2021/09/30 08:29:05;;;;;;;9.10;1.90;;;;;;;14.21;60.74;102560.34;5102482;28;20044;-59
2021/09/30 08:31:31;;;;;;;7.13;1.58;;;;;;;14.25;60.44;102555.97;5102728;28;20047;-59
2021/09/30 08:33:58;;;;;;;6.00;1.48;;;;;;;14.24;60.78;102562.13;5106973;28;20028;-58
2021/09/30 08:36:25;;;;;;;5.35;1.40;;;;;;;14.20;61.21;102547.13;5105264;28;20839;-58
2021/09/30 08:38:51;;;;;;;7.65;1.40;;;;;;;14.21;59.95;102547.13;5105584;28;20053;-58
2021/09/30 08:41:20;;;;;;;6.53;1.20;;;;;;;14.23;59.03;102552.41;5098100;28;20028;-60
2021/09/30 08:43:46;;;;;;;5.30;1.20;;;;;;;14.16;59.59;102553.25;5104443;28;20109;-59
2021/09/30 08:46:12;;;;;;;5.18;1.23;;;;;;;14.10;61.27;102554.06;5120220;28;20388;-58
2021/09/30 08:48:39;;;;;;;10.40;1.75;;;;;;;13.96;63.07;102555.66;5106587;28;20027;-59
2021/09/30 08:51:06;;;;;;;9.43;1.77;;;;;;;13.96;63.33;102553.91;5126617;28;20121;-58
2021/09/30 08:53:33;;;;;;;9.75;1.75;;;;;;;14.00;64.02;102560.97;5122084;28;20092;-58
2021/09/30 08:55:59;;;;;;;11.23;2.30;;;;;;;13.94;64.40;102555.63;5108709;28;20028;-59
2021/09/30 08:58:25;;;;;;;11.57;1.83;;;;;;;13.87;64.43;102555.53;5126943;28;20087;-59
2021/09/30 09:00:53;;;;;;;7.60;1.55;;;;;;;13.82;64.75;102544.94;5099966;28;20041;-59
2021/09/30 09:03:46;;;;;;;8.02;1.63;;;;;;;13.75;64.88;102549.25;5094459;28;20024;-59
2021/09/30 09:06:33;;;;;;;5.80;1.45;;;;;;;13.73;64.84;102544.81;5113910;28;20069;-59
2021/09/30 09:09:20;;;;;;;8.32;1.98;;;;;;;13.74;64.51;102549.22;5087361;28;20099;-59
2021/09/30 09:11:46;;;;;;;9.35;1.63;;;;;;;13.73;64.31;102545.69;5098687;28;20032;-58
2021/09/30 09:14:12;;;;;;;7.47;1.50;;;;;;;13.69;64.34;102543.00;5124513;28;20510;-58
2021/09/30 09:16:37;;;;;;;8.55;1.67;;;;;;;13.69;65.07;102543.00;5102824;28;20039;-59
2021/09/30 09:19:02;;;;;;;5.53;1.70;;;;;;;13.70;64.88;102537.72;5089920;28;20025;-57
2021/09/30 09:21:28;;;;;;;7.80;1.70;;;;;;;13.77;64.14;102536.94;5096438;28;20059;-60
2021/09/30 09:23:56;;;;;;;8.68;1.42;;;;;;;13.87;63.11;102537.06;5091907;28;20035;-58
2021/09/30 09:26:32;;;;;;;5.07;1.73;;;;;;;13.97;63.58;102536.28;5115176;28;20042;-58
2021/09/30 09:29:09;;;;;;;10.45;1.60;;;;;;;14.14;62.93;102534.72;5090639;28;20408;-58
2021/09/30 09:31:37;;;;;;;6.32;1.40;;;;;;;14.24;62.43;102528.66;5085559;28;20044;-59
2021/09/30 09:34:23;;;;;;;6.72;1.17;;;;;;;14.32;61.85;102534.00;5095477;28;20040;-58
2021/09/30 09:36:51;;;;;;;7.05;1.60;;;;;;;14.44;61.20;102525.28;5100082;28;20696;-59
2021/09/30 09:39:37;;;;;;;7.72;1.58;;;;;;;14.42;60.53;102527.03;5093089;28;20023;-59
2021/09/30 09:42:14;;;;;;;7.45;1.90;;;;;;;14.51;60.04;102529.78;5092971;28;20047;-59
2021/09/30 09:45:04;;;;;;;3.95;1.20;;;;;;;14.51;59.66;102520.97;5110588;28;20026;-58
2021/09/30 09:47:32;;;;;;;9.02;1.77;;;;;;;14.57;59.42;102526.31;5094886;28;20040;-60
2021/09/30 09:50:10;;;;;;;5.47;1.70;;;;;;;14.69;59.40;102521.16;5094528;28;20092;-59
2021/09/30 09:52:49;;;;;;;7.25;2.03;;;;;;;14.78;59.45;102518.59;5090057;28;20021;-59
2021/09/30 09:55:27;;;;;;;4.85;1.30;;;;;;;14.93;58.61;102516.91;5098491;28;20512;-59
2021/09/30 09:58:03;;;;;;;11.43;1.63;;;;;;;15.11;57.63;102517.03;5090514;28;20029;-59
2021/09/30 10:00:34;;;;;;;10.23;1.75;;;;;;;15.20;58.88;102519.72;5092435;28;20039;-59
2021/09/30 10:03:25;;;;;;;6.20;1.50;;;;;;;15.24;57.63;102519.75;5084233;28;20028;-60
2021/09/30 10:05:50;;;;;;;4.93;1.33;;;;;;;15.28;57.08;102522.44;5103723;28;20036;-60
2021/09/30 10:08:16;;;;;;;4.00;1.10;;;;;;;15.30;53.29;102515.38;5100730;28;20028;-59
2021/09/30 10:10:44;;;;;;;3.95;0.80;;;;;;;15.22;54.68;102517.09;5089028;28;20087;-59
2021/09/30 10:13:09;;;;;;;4.05;1.20;;;;;;;15.20;53.10;102513.56;5092815;28;20039;-58
2021/09/30 10:15:37;;;;;;;5.47;1.00;;;;;;;15.17;53.27;102519.72;5084682;28;20028;-58
2021/09/30 10:18:04;;;;;;;3.25;0.95;;;;;;;15.16;53.23;102515.31;5096858;28;20032;-58
2021/09/30 10:20:34;;;;;;;2.22;0.70;;;;;;;15.21;53.08;102515.31;5110088;28;20036;-58
2021/09/30 10:23:02;;;;;;;7.68;1.02;;;;;;;15.11;53.64;102510.84;5096794;28;20040;-59
2021/09/30 10:25:39;;;;;;;4.85;1.20;;;;;;;15.13;55.52;102517.03;5093134;28;20060;-59
2021/09/30 10:28:07;;;;;;;4.93;1.55;;;;;;;15.02;57.76;102509.91;5099695;28;20046;-59
2021/09/30 10:30:41;;;;;;;7.50;1.48;;;;;;;15.02;59.12;102499.31;5094755;28;20032;-60
2021/09/30 10:33:10;;;;;;;5.97;1.25;;;;;;;15.06;58.83;102502.00;5109749;28;20085;-59
2021/09/30 10:35:36;;;;;;;;;;;;;;;15.10;58.28;102502.00;5110150;28;20066;-58
2021/09/30 10:38:33;;;;;;;6.97;1.20;;;;;;;15.14;59.19;102498.53;5097231;28;20014;-58
2021/09/30 10:41:01;;;;;;;6.32;1.27;;;;;;;15.16;58.12;102504.72;5092189;28;20382;-59
2021/09/30 10:43:34;;;;;;;5.55;1.40;;;;;;;15.10;58.23;102509.06;5091038;28;20029;-60
2021/09/30 10:46:00;;;;;;;4.80;1.25;;;;;;;15.12;58.58;102505.56;5098666;28;20039;-58
2021/09/30 10:48:30;;;;;;;4.32;1.27;;;;;;;15.07;57.70;102507.31;5092637;28;20047;-59
2021/09/30 10:50:56;;;;;;;5.20;1.30;;;;;;;14.95;57.26;102502.81;5107664;28;20431;-58
2021/09/30 10:53:45;;;;;;;5.63;1.25;;;;;;;14.81;57.84;102505.34;5087464;28;20036;-58
2021/09/30 10:56:39;;;;;;;7.57;1.17;;;;;;;14.80;58.11;102500.03;5088127;28;20389;-60
2021/09/30 10:59:07;;;;;;;7.45;1.55;;;;;;;14.69;58.24;102499.06;5099572;28;20043;-61
2021/09/30 11:01:49;;;;;;;7.45;1.67;;;;;;;14.75;58.42;102499.16;5084409;28;20112;-60
2021/09/30 11:04:18;;;;;;;5.82;1.65;;;;;;;14.72;58.56;102499.13;5090625;28;20048;-59
2021/09/30 11:07:05;;;;;;;7.90;1.50;;;;;;;14.73;59.63;102507.06;5102789;28;20120;-60
2021/09/30 11:09:31;;;;;;;8.18;1.95;;;;;;;14.65;59.18;102492.91;5097208;28;20052;-58
2021/09/30 11:12:08;;;;;;;7.93;1.33;;;;;;;14.55;59.26;102499.81;5101816;28;20029;-58
2021/09/30 11:14:54;;;;;;;5.68;1.40;;;;;;;14.49;59.59;102494.50;5100823;28;20032;-58
2021/09/30 11:17:39;;;;;;;7.57;1.70;;;;;;;14.43;59.24;102495.31;5083460;28;20024;-59
2021/09/30 11:20:29;;;;;;;6.68;1.63;;;;;;;14.38;59.62;102502.31;5102217;28;20042;-59
2021/09/30 11:22:55;;;;;;;6.05;1.20;;;;;;;14.32;59.32;102494.34;5088061;28;20056;-58
2021/09/30 11:25:20;;;;;;;9.73;1.50;;;;;;;14.32;59.85;102498.75;5083580;28;20025;-58
2021/09/30 11:27:45;;;;;;;4.50;1.63;;;;;;;14.31;59.05;102491.69;5109454;28;20028;-58
2021/09/30 11:30:17;;;;;;;4.35;1.35;;;;;;;14.23;61.02;102494.25;5102554;28;20040;-58
2021/09/30 11:32:43;;;;;;;4.63;1.10;;;;;;;14.24;60.00;102486.34;5115059;28;20051;-59
2021/09/30 11:35:09;;;;;;;6.72;1.95;;;;;;;14.23;60.91;102496.91;5110027;28;20032;-59
2021/09/30 11:37:44;;;;;;;4.65;1.77;;;;;;;14.17;60.41;102488.91;5106940;28;20054;-60
2021/09/30 11:40:16;;;;;;;6.53;1.35;;;;;;;14.26;59.51;102475.78;5093594;28;20356;-60
2021/09/30 11:42:53;;;;;;;4.32;1.55;;;;;;;14.20;59.70;102478.38;5108108;28;20106;-59
2021/09/30 11:45:21;;;;;;;6.70;1.40;;;;;;;14.22;59.46;102485.44;5093373;28;20033;-59
2021/09/30 11:47:49;;;;;;;3.95;1.20;;;;;;;14.24;59.75;102474.88;5091099;28;20053;-58
2021/09/30 11:50:21;;;;;;;6.80;1.20;;;;;;;14.22;59.61;102476.63;5100830;28;20023;-58
2021/09/30 11:53:08;;;;;;;7.68;1.27;;;;;;;14.19;59.72;102472.19;5110140;28;20028;-59
2021/09/30 11:55:40;;;;;;;3.17;1.20;;;;;;;14.22;60.11;102469.59;5101372;28;20087;-60
2021/09/30 11:58:07;;;;;;;4.38;1.25;;;;;;;14.19;59.18;102471.31;5092308;28;20032;-59
2021/09/30 12:00:33;;;;;;;5.90;1.15;;;;;;;14.23;59.48;102459.88;5099973;28;20028;-56
2021/09/30 12:03:06;;;;;;;3.33;1.33;;;;;;;14.24;58.55;102453.75;5102465;28;20438;-59
2021/09/30 12:05:36;;;;;;;3.03;1.20;;;;;;;14.21;59.17;102457.25;5094606;28;20039;-58
2021/09/30 12:08:04;;;;;;;5.72;1.23;;;;;;;14.21;59.10;102457.25;5092975;28;20118;-58
2021/09/30 12:10:32;;;;;;;7.40;1.40;;;;;;;14.18;58.63;102451.06;5093834;28;20050;-59
2021/09/30 12:12:58;;;;;;;8.57;1.40;;;;;;;14.15;58.68;102448.38;5089866;28;20036;-59
2021/09/30 12:15:25;;;;;;;5.18;1.38;;;;;;;14.12;58.21;102456.25;5104295;28;20062;-58
2021/09/30 12:17:50;;;;;;;4.07;1.30;;;;;;;14.08;58.15;102451.81;5100480;28;20024;-59
2021/09/30 12:20:18;;;;;;;4.70;1.40;;;;;;;14.02;58.87;102444.72;5104046;28;20060;-58
2021/09/30 12:22:46;;;;;;;6.07;1.30;;;;;;;14.04;59.22;102438.59;5103291;28;20028;-58
2021/09/30 12:25:19;;;;;;;4.80;1.42;;;;;;;14.00;58.75;102441.19;5099597;28;20091;-59
2021/09/30 12:27:50;;;;;;;3.88;1.17;;;;;;;13.98;59.22;102435.00;5107253;28;20028;-60
2021/09/30 12:30:21;;;;;;;5.93;1.42;;;;;;;13.99;58.78;102431.50;5107045;28;20028;-58
2021/09/30 12:32:53;;;;;;;3.67;1.00;;;;;;;14.04;58.82;102427.13;5097824;28;20024;-59
2021/09/30 12:35:26;;;;;;;3.92;1.02;;;;;;;14.23;58.46;102413.19;5094889;28;20063;-59
2021/09/30 12:37:54;;;;;;;6.38;1.42;;;;;;;14.42;57.99;102403.66;5095897;28;20036;-58
2021/09/30 12:40:26;;;;;;;5.13;1.35;;;;;;;14.61;58.03;102403.78;5097171;28;20017;-59
2021/09/30 12:43:11;;;;;;;4.97;1.10;;;;;;;14.71;57.26;102404.75;5098469;28;20070;-59
2021/09/30 12:45:38;;;;;;;5.15;1.20;;;;;;;14.76;57.69;102395.06;5096293;28;20024;-58
2021/09/30 12:48:06;;;;;;;8.25;1.33;;;;;;;14.76;58.33;102408.28;5098383;28;20091;-58
2021/09/30 12:50:41;;;;;;;5.18;1.10;;;;;;;14.77;57.89;102403.00;5100930;28;20091;-59
2021/09/30 12:53:07;;;;;;;6.97;1.38;;;;;;;14.73;58.34;102395.06;5099483;28;20019;-59
2021/09/30 12:55:33;;;;;;;8.27;1.23;;;;;;;14.71;58.35;102395.06;5107424;28;20028;-59
2021/09/30 12:57:58;;;;;;;7.10;1.73;;;;;;;14.76;58.05;102387.13;5107045;28;20108;-58
2021/09/30 13:00:24;;;;;;;3.97;1.38;;;;;;;14.74;59.04;102387.09;5105721;28;20121;-59
2021/09/30 13:02:58;;;;;;;7.05;1.20;;;;;;;14.80;59.41;102375.69;5104303;28;20089;-59
2021/09/30 13:05:25;;;;;;;8.48;1.50;;;;;;;14.74;58.79;102381.81;5105258;28;20028;-58
2021/09/30 13:07:58;;;;;;;7.80;1.40;;;;;;;14.79;58.19;102364.22;5105635;28;20087;-59
2021/09/30 13:10:34;;;;;;;9.93;1.52;;;;;;;14.85;58.51;102367.78;5092186;28;20049;-58
2021/09/30 13:13:14;;;;;;;6.78;1.65;;;;;;;14.81;59.20;102361.59;5102787;28;20497;-58
2021/09/30 13:15:45;;;;;;;8.73;1.95;;;;;;;14.87;58.52;102366.03;5104916;28;20024;-59
2021/09/30 13:18:13;;;;;;;6.93;1.70;;;;;;;14.80;59.54;102352.78;5104820;28;20020;-58
2021/09/30 13:20:40;;;;;;;11.63;1.55;;;;;;;14.73;60.22;102350.97;5098762;28;20793;-58
2021/09/30 13:23:06;;;;;;;6.60;1.50;;;;;;;14.70;59.74;102347.41;5094473;28;20025;-58
2021/09/30 13:25:32;;;;;;;7.47;1.65;;;;;;;14.79;60.10;102344.81;5096445;28;20020;-58
2021/09/30 13:27:58;;;;;;;6.93;1.42;;;;;;;14.82;59.12;102347.50;5097332;28;20104;-60
2021/09/30 13:30:31;;;;;;;9.02;1.70;;;;;;;14.59;59.44;102344.69;5096413;28;20028;-58
2021/09/30 13:32:58;;;;;;;5.97;1.85;;;;;;;14.51;59.72;102339.34;5095347;28;20717;-58
2021/09/30 13:35:30;;;;;;;14.15;1.80;;;;;;;14.53;60.45;102334.06;5094871;28;20024;-58
2021/09/30 13:37:57;;;;;;;9.38;1.77;;;;;;;14.39;60.71;102329.56;5100065;28;20020;-59
2021/09/30 13:40:24;;;;;;;5.72;1.50;;;;;;;14.39;61.76;102328.69;5100018;28;20137;-59
2021/09/30 13:42:50;;;;;;;5.70;1.45;;;;;;;14.41;61.77;102313.72;5106426;28;20032;-59
2021/09/30 13:45:18;;;;;;;8.93;1.60;;;;;;;14.41;61.92;102322.53;5104730;28;20032;-59
2021/09/30 13:47:44;;;;;;;6.53;1.40;;;;;;;14.41;62.60;102311.94;5104115;28;20368;-59
2021/09/30 13:50:14;;;;;;;6.05;1.42;;;;;;;14.42;62.69;102295.22;5104457;28;20024;-61
2021/09/30 13:52:40;;;;;;;9.50;1.73;;;;;;;14.37;62.01;102301.38;5100041;28;20025;-59
2021/09/30 13:55:06;;;;;;;6.10;1.65;;;;;;;14.34;62.50;102303.97;5100796;28;20039;-63
2021/09/30 13:57:34;;;;;;;10.77;1.65;;;;;;;14.27;62.76;102302.16;5100171;28;20028;-59
2021/09/30 14:00:00;;;;;;;6.22;1.63;;;;;;;14.22;62.56;102284.53;5106114;28;20036;-60
2021/09/30 14:02:25;;;;;;;4.63;1.27;;;;;;;14.20;62.66;102288.91;5097869;28;20092;-60
2021/09/30 14:04:50;;;;;;;6.55;1.45;;;;;;;14.15;62.33;102280.06;5098541;28;20087;-59
2021/09/30 14:07:16;;;;;;;6.88;1.17;;;;;;;14.15;63.06;102282.72;5082220;28;20020;-61
2021/09/30 14:09:41;;;;;;;5.65;1.13;;;;;;;14.19;62.19;102278.31;5093661;28;20404;-60
2021/09/30 14:12:07;;;;;;;8.60;1.48;;;;;;;14.21;62.55;102280.13;5089756;28;20043;-60
2021/09/30 14:14:33;;;;;;;4.75;1.30;;;;;;;14.21;62.12;102292.44;5099618;28;20127;-59
2021/09/30 14:16:59;;;;;;;6.47;1.40;;;;;;;14.22;62.14;102286.28;5104412;28;20055;-60
2021/09/30 14:19:25;;;;;;;8.35;1.90;;;;;;;14.09;62.26;102271.22;5103855;28;20027;-61